RJEO(METAR)
08/22 14:00
RJEO 220500Z 27019KT 7000 FEW005 SCT008 BKN015 25/23 Q1005 RMK
A2968=
戻る
トップページへ戻る
IMOC Co,.Ltd.